Sant Just Desvern, Spain
Current Conditions -  °F | °C
As of 1:30 PM on Monday 22 Dec 2014 (Local Time) from LEBL Reporting Station
Clear Clear  
Wind Chill: 14°   Ceiling: Unl
Heat Index: 14°   Visibility: 6mi
Dew Point:   Wind: 3mph
Humidity: 55%   Direction: 300°WNW
Pressure: 30.48"   Gusts: NA
Location:  41.39°N, 2.08°E
Report Text: LEBL 221230Z 30003KT 270V340 CAVOK 14/05 Q1032 NOSIG
Loading
Personal Weather Stations






























Interactive Weather Map New forecast layout! Learn more

10-Day Weather Forecast

Advertisements
Track Severe Weather on mobile